Airport View

Enter AWOS ICAO identifier for current METAR.

ex. KFNL

KBDU 031730Z AUTO 02004KT 10SM CLR 26/09 A3020 RMK AO2

3 Jul 2020 17:55

Frequency: 118.825

Phone: 303-541-9540

Other Area AWOS: KLMO - KEIK - KBJC - KFNL

TAF KBJC 031121Z 0312/0412 32007KT P6SM SCT150 FM031600 02007KT P6SM SCT120 FM032000 32012KT P6SM SCT090 BKN120 TEMPO 0320/0323 VRB25G35KT -TSRA BKN080CB FM032300 23012KT P6SM FEW090 SCT120 FM040300 28006KT P6SM SCT120